createdAt,value
2017-11-29T00:00:54.236Z,8.15
2017-11-29T00:01:56.719Z,7.90
2017-11-29T00:02:59.177Z,9.70
2017-11-29T00:04:01.638Z,8.70
2017-11-29T00:05:04.101Z,8.02
2017-11-29T00:06:06.579Z,8.18
2017-11-29T00:07:09.070Z,8.77
2017-11-29T00:08:11.524Z,8.50
2017-11-29T00:09:13.987Z,8.32
2017-11-29T00:10:16.464Z,8.50
2017-11-29T00:11:18.923Z,7.90
2017-11-29T00:12:21.397Z,8.65
2017-11-29T00:13:23.870Z,8.15
2017-11-29T00:14:26.337Z,7.70
2017-11-29T00:15:28.814Z,7.97
2017-11-29T00:16:31.321Z,8.07
2017-11-29T00:17:33.826Z,7.85
2017-11-29T00:18:36.306Z,8.60
2017-11-29T00:19:38.792Z,9.13
2017-11-29T00:20:41.281Z,8.52
2017-11-29T00:21:43.739Z,8.65
2017-11-29T00:22:46.217Z,9.43
2017-11-29T00:23:48.679Z,9.00
2017-11-29T00:24:51.140Z,8.80
2017-11-29T00:25:53.609Z,8.82
2017-11-29T00:26:56.102Z,8.57
2017-11-29T00:27:58.585Z,9.27
2017-11-29T00:29:01.118Z,8.90
2017-11-29T00:30:03.574Z,7.78
2017-11-29T00:31:06.372Z,8.90
2017-11-29T00:32:08.846Z,8.30
2017-11-29T00:33:11.336Z,7.97
2017-11-29T00:34:13.793Z,8.05
2017-11-29T00:35:16.253Z,8.65
2017-11-29T00:36:18.722Z,9.02
2017-11-29T00:37:21.183Z,8.50
2017-11-29T00:38:23.679Z,9.40
2017-11-29T00:39:26.157Z,8.80
2017-11-29T00:40:28.626Z,8.45
2017-11-29T00:41:31.098Z,8.95
2017-11-29T00:42:33.569Z,9.25
2017-11-29T00:43:36.061Z,8.48
2017-11-29T00:44:38.544Z,8.15
2017-11-29T00:45:41.007Z,6.75
2017-11-29T00:46:43.483Z,7.00
2017-11-29T00:47:45.979Z,6.45
2017-11-29T00:48:48.465Z,7.05
2017-11-29T00:49:50.930Z,7.37
2017-11-29T00:50:53.460Z,7.65
2017-11-29T00:51:55.915Z,6.80
2017-11-29T00:52:58.382Z,7.53
2017-11-29T00:54:00.859Z,6.97
2017-11-29T00:55:03.332Z,6.65
2017-11-29T00:56:05.806Z,6.00
2017-11-29T00:57:08.405Z,7.22
2017-11-29T00:58:10.870Z,6.15
2017-11-29T00:59:13.362Z,6.80
2017-11-29T01:00:15.826Z,5.93
2017-11-29T01:01:18.284Z,6.18
2017-11-29T01:02:20.769Z,6.03
2017-11-29T01:03:23.237Z,5.28
2017-11-29T01:04:25.734Z,4.60
2017-11-29T01:05:28.211Z,4.93
2017-11-29T01:06:30.682Z,5.00
2017-11-29T01:07:33.135Z,4.20
2017-11-29T01:08:35.610Z,4.62
2017-11-29T01:09:38.085Z,4.62
2017-11-29T01:10:40.561Z,4.35
2017-11-29T01:11:43.029Z,4.70
2017-11-29T01:12:45.493Z,4.60
2017-11-29T01:13:47.988Z,4.47
2017-11-29T01:14:50.478Z,4.10
2017-11-29T01:15:52.942Z,4.00
2017-11-29T01:16:55.396Z,3.80
2017-11-29T01:17:57.843Z,4.00
2017-11-29T01:19:00.296Z,4.50
2017-11-29T01:20:02.782Z,4.20
2017-11-29T01:21:05.245Z,4.20
2017-11-29T01:22:07.712Z,5.12
2017-11-29T01:23:10.191Z,4.40
2017-11-29T01:24:12.653Z,6.18
2017-11-29T01:25:15.145Z,5.30
2017-11-29T01:26:17.597Z,5.15
2017-11-29T01:27:20.067Z,4.30
2017-11-29T01:28:22.511Z,4.47
2017-11-29T01:29:24.964Z,5.45
2017-11-29T01:30:27.466Z,4.90
2017-11-29T01:31:29.916Z,5.07
2017-11-29T01:32:32.374Z,4.93
2017-11-29T01:33:34.828Z,5.62
2017-11-29T01:34:37.284Z,4.68
2017-11-29T01:35:39.757Z,4.50
2017-11-29T01:36:42.218Z,4.87
2017-11-29T01:37:44.682Z,5.75
2017-11-29T01:38:47.150Z,5.50
2017-11-29T01:39:49.609Z,5.72
2017-11-29T01:40:52.156Z,6.75
2017-11-29T01:41:54.625Z,6.12
2017-11-29T01:42:57.094Z,6.28
2017-11-29T01:43:59.549Z,6.57
2017-11-29T01:45:02.028Z,6.70
2017-11-29T01:46:04.529Z,6.20
2017-11-29T01:47:06.988Z,7.55
2017-11-29T01:48:09.462Z,7.53
2017-11-29T01:49:11.935Z,8.00
2017-11-29T01:50:14.393Z,7.85
2017-11-29T01:51:16.872Z,8.77
2017-11-29T01:52:19.328Z,9.60
2017-11-29T01:53:21.821Z,10.40
2017-11-29T01:54:24.284Z,9.50
2017-11-29T01:55:26.769Z,10.77
2017-11-29T01:56:29.258Z,9.45
2017-11-29T01:57:31.754Z,10.00
2017-11-29T01:58:34.208Z,9.55
2017-11-29T01:59:36.663Z,9.45
2017-11-29T02:00:49.023Z,8.65
2017-11-29T02:01:51.509Z,8.45
2017-11-29T02:02:53.968Z,8.48
2017-11-29T02:03:56.441Z,9.38
2017-11-29T02:04:58.908Z,8.60
2017-11-29T02:06:02.260Z,8.80
2017-11-29T02:07:04.748Z,8.90
2017-11-29T02:08:07.205Z,9.45
2017-11-29T02:09:09.677Z,8.60
2017-11-29T02:10:12.140Z,10.25
2017-11-29T02:11:14.623Z,8.50
2017-11-29T02:12:17.111Z,9.30
2017-11-29T02:13:19.568Z,10.52
2017-11-29T02:14:22.024Z,9.85
2017-11-29T02:15:24.502Z,11.75
2017-11-29T02:16:26.974Z,11.02
2017-11-29T02:17:29.469Z,11.12
2017-11-29T02:18:31.928Z,10.05
2017-11-29T02:19:34.714Z,10.15
2017-11-29T02:20:37.213Z,10.45
2017-11-29T02:21:39.672Z,10.43
2017-11-29T02:22:42.170Z,10.48
2017-11-29T02:23:44.657Z,10.98
2017-11-29T02:24:47.135Z,10.77
2017-11-29T02:25:49.613Z,11.65
2017-11-29T02:26:52.173Z,10.43
2017-11-29T02:27:54.721Z,10.88
2017-11-29T02:28:57.181Z,11.15
2017-11-29T02:29:59.650Z,12.13
2017-11-29T02:31:02.121Z,11.35
2017-11-29T02:32:04.594Z,11.02
2017-11-29T02:33:07.119Z,11.95
2017-11-29T02:34:09.686Z,11.50
2017-11-29T02:35:12.161Z,11.63
2017-11-29T02:36:14.634Z,10.60
2017-11-29T02:37:17.099Z,11.48
2017-11-29T02:38:19.593Z,10.82
2017-11-29T02:39:22.135Z,11.70
2017-11-29T02:40:36.424Z,11.48
2017-11-29T02:41:50.636Z,10.70
2017-11-29T02:42:53.110Z,11.48
2017-11-29T02:43:55.643Z,11.68
2017-11-29T02:44:58.109Z,10.63
2017-11-29T02:46:00.594Z,10.75
2017-11-29T02:47:03.052Z,10.43
2017-11-29T02:48:05.530Z,10.85
2017-11-29T02:49:08.013Z,10.95
2017-11-29T02:50:10.481Z,10.10
2017-11-29T02:51:12.944Z,11.65
2017-11-29T02:52:15.433Z,11.52
2017-11-29T02:53:17.921Z,11.00
2017-11-29T02:54:20.405Z,13.13
2017-11-29T02:55:22.882Z,12.65
2017-11-29T02:56:25.374Z,13.25
2017-11-29T02:57:27.836Z,11.75
2017-11-29T02:58:30.300Z,12.85
2017-11-29T02:59:32.783Z,13.65
2017-11-29T03:00:35.259Z,12.02
2017-11-29T03:01:37.728Z,11.60
2017-11-29T03:02:40.191Z,12.37
2017-11-29T03:03:42.666Z,12.98
2017-11-29T03:04:45.127Z,11.80
2017-11-29T03:05:47.583Z,12.27
2017-11-29T03:06:50.054Z,12.85
2017-11-29T03:07:52.520Z,11.90
2017-11-29T03:08:54.979Z,12.93
2017-11-29T03:09:57.459Z,12.07
2017-11-29T03:10:59.928Z,11.75
2017-11-29T03:12:02.403Z,11.93
2017-11-29T03:13:04.859Z,11.82
2017-11-29T03:14:07.340Z,12.07
2017-11-29T03:15:09.838Z,12.80
2017-11-29T03:16:12.310Z,12.70
2017-11-29T03:17:14.769Z,12.55
2017-11-29T03:18:17.246Z,13.95
2017-11-29T03:19:19.735Z,12.45
2017-11-29T03:20:22.243Z,12.27
2017-11-29T03:21:24.700Z,14.32
2017-11-29T03:22:27.163Z,11.50
2017-11-29T03:23:29.618Z,12.40
2017-11-29T03:24:32.102Z,12.07
2017-11-29T03:25:34.646Z,12.13
2017-11-29T03:26:37.109Z,13.02
2017-11-29T03:27:39.595Z,12.77
2017-11-29T03:28:42.094Z,12.70
2017-11-29T03:29:44.572Z,14.00
2017-11-29T03:30:47.571Z,12.80
2017-11-29T03:31:50.032Z,11.98
2017-11-29T03:32:52.506Z,10.68
2017-11-29T03:33:55.051Z,11.50
2017-11-29T03:34:57.519Z,11.38
2017-11-29T03:35:59.984Z,11.40
2017-11-29T03:37:02.489Z,11.50
2017-11-29T03:38:04.944Z,10.93
2017-11-29T03:39:07.402Z,12.40
2017-11-29T03:40:09.878Z,11.55
2017-11-29T03:41:12.344Z,11.48
2017-11-29T03:42:14.823Z,11.73
2017-11-29T03:43:17.281Z,13.82
2017-11-29T03:44:19.756Z,11.95
2017-11-29T03:45:22.215Z,10.70
2017-11-29T03:46:24.676Z,10.98
2017-11-29T03:47:27.194Z,11.98
2017-11-29T03:48:29.660Z,12.30
2017-11-29T03:49:32.150Z,13.68
2017-11-29T03:50:34.676Z,12.05
2017-11-29T03:51:37.172Z,11.68
2017-11-29T03:52:39.650Z,13.10
2017-11-29T03:53:42.138Z,13.07
2017-11-29T03:54:44.630Z,13.43
2017-11-29T03:55:47.092Z,13.85
2017-11-29T03:56:49.556Z,13.48
2017-11-29T03:57:52.039Z,12.45
2017-11-29T03:58:54.507Z,15.27
2017-11-29T03:59:56.986Z,14.93
2017-11-29T04:00:59.553Z,15.70
2017-11-29T04:02:02.029Z,14.98
2017-11-29T04:03:04.498Z,15.70
2017-11-29T04:04:06.957Z,15.15
2017-11-29T04:05:09.443Z,14.98
2017-11-29T04:06:11.915Z,15.00
2017-11-29T04:07:14.400Z,13.27
2017-11-29T04:08:16.876Z,14.10
2017-11-29T04:09:19.337Z,14.68
2017-11-29T04:10:21.819Z,14.30
2017-11-29T04:11:24.310Z,15.45
2017-11-29T04:12:26.781Z,15.10
2017-11-29T04:13:29.274Z,13.32
2017-11-29T04:14:31.754Z,14.38
2017-11-29T04:15:34.208Z,14.87
2017-11-29T04:16:36.679Z,15.88
2017-11-29T04:17:39.146Z,14.27
2017-11-29T04:18:41.608Z,14.55
2017-11-29T04:19:44.073Z,13.52
2017-11-29T04:20:46.551Z,14.75
2017-11-29T04:21:49.016Z,13.98
2017-11-29T04:22:51.498Z,14.23
2017-11-29T04:23:54.066Z,15.50
2017-11-29T04:24:56.535Z,15.45
2017-11-29T04:25:59.011Z,13.38
2017-11-29T04:27:01.501Z,14.90
2017-11-29T04:28:03.982Z,14.43
2017-11-29T04:29:06.448Z,15.10
2017-11-29T04:30:08.922Z,15.48
2017-11-29T04:31:11.402Z,18.20
2017-11-29T04:32:13.876Z,15.98
2017-11-29T04:33:16.344Z,15.70
2017-11-29T04:34:18.806Z,17.70
2017-11-29T04:35:21.287Z,16.33
2017-11-29T04:36:23.788Z,15.77
2017-11-29T04:37:26.266Z,16.37
2017-11-29T04:38:28.757Z,15.95
2017-11-29T04:39:31.215Z,16.75
2017-11-29T04:40:33.685Z,15.30
2017-11-29T04:41:36.170Z,16.62
2017-11-29T04:42:38.666Z,16.37
2017-11-29T04:43:41.136Z,16.87
2017-11-29T04:44:43.630Z,14.95
2017-11-29T04:45:46.111Z,14.70
2017-11-29T04:46:48.573Z,15.50
2017-11-29T04:47:51.036Z,15.75
2017-11-29T04:48:53.511Z,16.62
2017-11-29T04:49:55.995Z,15.80
2017-11-29T04:50:58.474Z,16.35
2017-11-29T04:52:00.952Z,15.85
2017-11-29T04:53:03.421Z,15.35
2017-11-29T04:54:05.888Z,16.25
2017-11-29T04:55:08.411Z,15.93
2017-11-29T04:56:10.881Z,14.80
2017-11-29T04:57:13.354Z,14.63
2017-11-29T04:58:15.812Z,14.75
2017-11-29T04:59:18.276Z,14.63
2017-11-29T05:00:20.753Z,15.18
2017-11-29T05:01:23.241Z,15.00
2017-11-29T05:02:25.722Z,16.00
2017-11-29T05:03:28.188Z,17.00
2017-11-29T05:04:30.679Z,17.50
2017-11-29T05:05:33.154Z,17.27
2017-11-29T05:06:35.653Z,15.85
2017-11-29T05:07:38.142Z,13.60
2017-11-29T05:08:40.605Z,15.25
2017-11-29T05:09:43.074Z,17.92
2017-11-29T05:10:45.533Z,17.60
2017-11-29T05:11:48.008Z,16.17
2017-11-29T05:12:50.495Z,18.30
2017-11-29T05:13:52.992Z,18.80
2017-11-29T05:14:55.470Z,14.30
2017-11-29T05:15:57.942Z,15.23
2017-11-29T05:17:00.413Z,15.98
2017-11-29T05:18:02.894Z,16.60
2017-11-29T05:19:05.370Z,17.27
2017-11-29T05:20:07.837Z,15.60
2017-11-29T05:21:10.318Z,15.48
2017-11-29T05:22:12.776Z,16.45
2017-11-29T05:23:15.253Z,19.02
2017-11-29T05:24:17.755Z,16.60
2017-11-29T05:25:20.237Z,15.35
2017-11-29T05:26:22.701Z,15.93
2017-11-29T05:27:25.160Z,15.02
2017-11-29T05:28:27.616Z,16.30
2017-11-29T05:29:30.076Z,17.25
2017-11-29T05:30:32.560Z,16.85
2017-11-29T05:31:35.034Z,18.08
2017-11-29T05:32:37.524Z,16.70
2017-11-29T05:33:39.990Z,16.65
2017-11-29T05:34:42.449Z,16.58
2017-11-29T05:35:44.909Z,17.45
2017-11-29T05:36:47.403Z,16.33
2017-11-29T05:37:49.874Z,17.40
2017-11-29T05:38:52.349Z,17.10
2017-11-29T05:39:54.822Z,17.48
2017-11-29T05:40:57.299Z,17.37
2017-11-29T05:41:59.759Z,17.58
2017-11-29T05:43:02.230Z,18.00
2017-11-29T05:44:04.710Z,17.70
2017-11-29T05:45:07.192Z,18.08
2017-11-29T05:46:09.654Z,16.90
2017-11-29T05:47:12.121Z,16.67
2017-11-29T05:48:14.666Z,28.33
2017-11-29T05:49:17.142Z,20.50
2017-11-29T05:50:19.609Z,20.42
2017-11-29T05:51:22.092Z,21.55
2017-11-29T05:52:24.571Z,18.67
2017-11-29T05:53:27.027Z,21.15
2017-11-29T05:54:29.495Z,18.42
2017-11-29T05:55:31.994Z,18.37
2017-11-29T05:56:34.518Z,24.67
2017-11-29T05:57:37.010Z,21.58
2017-11-29T05:58:39.488Z,20.35
2017-11-29T05:59:41.973Z,23.30
2017-11-29T06:00:44.468Z,18.55
2017-11-29T06:01:46.950Z,19.15
2017-11-29T06:02:49.416Z,20.12
2017-11-29T06:03:51.890Z,18.73
2017-11-29T06:04:54.360Z,19.98
2017-11-29T06:05:56.858Z,51.60
2017-11-29T06:06:59.339Z,231.32
2017-11-29T06:08:01.822Z,164.95
2017-11-29T06:09:04.337Z,282.67
2017-11-29T06:10:06.834Z,534.55
2017-11-29T06:11:09.340Z,396.23
2017-11-29T06:12:11.834Z,639.63
2017-11-29T06:13:14.303Z,355.50
2017-11-29T06:14:16.787Z,378.83
2017-11-29T06:15:19.299Z,601.30
2017-11-29T06:16:21.814Z,204.10
2017-11-29T06:17:24.277Z,149.45
2017-11-29T06:18:26.749Z,539.28
2017-11-29T06:19:29.303Z,470.38
2017-11-29T06:20:31.792Z,60.90
2017-11-29T06:21:34.332Z,147.48
2017-11-29T06:22:36.814Z,294.25
2017-11-29T06:23:39.299Z,361.92
2017-11-29T06:24:41.792Z,192.90
2017-11-29T06:25:44.301Z,320.85
2017-11-29T06:26:46.797Z,244.93
2017-11-29T06:27:49.269Z,363.42
2017-11-29T06:28:51.749Z,259.33
2017-11-29T06:29:54.239Z,154.23
2017-11-29T06:30:56.733Z,119.35
2017-11-29T06:31:59.307Z,106.72
2017-11-29T06:33:01.795Z,86.07
2017-11-29T06:34:04.262Z,90.85
2017-11-29T06:35:06.785Z,31.60
2017-11-29T06:36:09.267Z,29.37
2017-11-29T06:37:11.771Z,26.92
2017-11-29T06:38:14.259Z,20.33
2017-11-29T06:39:16.741Z,19.75
2017-11-29T06:40:19.205Z,22.55
2017-11-29T06:41:21.664Z,19.50
2017-11-29T06:42:24.136Z,20.58
2017-11-29T06:43:26.603Z,19.02
2017-11-29T06:44:29.064Z,18.70
2017-11-29T06:45:31.767Z,18.50
2017-11-29T06:46:34.293Z,17.48
2017-11-29T06:47:36.807Z,38.30
2017-11-29T06:48:39.775Z,47.45
2017-11-29T06:49:42.250Z,34.40
2017-11-29T06:50:44.713Z,40.25
2017-11-29T06:51:47.195Z,42.65
2017-11-29T06:52:49.690Z,38.15
2017-11-29T06:53:52.198Z,39.72
2017-11-29T06:54:54.691Z,29.33
2017-11-29T06:55:57.163Z,32.15
2017-11-29T06:56:59.644Z,26.65
2017-11-29T06:58:02.126Z,35.00
2017-11-29T06:59:04.872Z,29.30
2017-11-29T07:00:07.509Z,26.20
2017-11-29T07:01:10.003Z,22.52
2017-11-29T07:02:12.653Z,21.80
2017-11-29T07:03:15.112Z,22.37
2017-11-29T07:04:17.569Z,24.33
2017-11-29T07:05:20.051Z,26.25
2017-11-29T07:06:22.531Z,25.58
2017-11-29T07:07:25.006Z,26.95
2017-11-29T07:08:27.485Z,23.30
2017-11-29T07:09:29.939Z,20.85
2017-11-29T07:10:32.419Z,18.52
2017-11-29T07:11:34.889Z,18.20
2017-11-29T07:12:37.364Z,20.58
2017-11-29T07:13:39.845Z,22.23
2017-11-29T07:14:42.325Z,20.52
2017-11-29T07:15:44.840Z,20.48
2017-11-29T07:16:47.304Z,21.85
2017-11-29T07:17:49.990Z,18.35
2017-11-29T07:18:52.484Z,19.60
2017-11-29T07:19:54.945Z,21.75
2017-11-29T07:20:57.413Z,16.92
2017-11-29T07:21:59.875Z,17.75
2017-11-29T07:23:02.348Z,17.70
2017-11-29T07:24:04.851Z,16.87
2017-11-29T07:25:07.410Z,17.60
2017-11-29T07:26:09.886Z,18.00
2017-11-29T07:27:12.442Z,18.15
2017-11-29T07:28:14.909Z,18.05
2017-11-29T07:29:17.400Z,18.50
2017-11-29T07:30:19.875Z,20.48
2017-11-29T07:31:22.333Z,22.08
2017-11-29T07:32:24.787Z,19.58
2017-11-29T07:33:27.258Z,19.92
2017-11-29T07:34:29.734Z,20.58
2017-11-29T07:35:32.214Z,22.92
2017-11-29T07:36:34.706Z,22.65
2017-11-29T07:37:37.183Z,22.40
2017-11-29T07:38:39.644Z,22.10
2017-11-29T07:39:42.125Z,22.90
2017-11-29T07:40:44.592Z,22.75
2017-11-29T07:41:47.056Z,24.08
2017-11-29T07:42:49.538Z,26.87
2017-11-29T07:43:52.002Z,26.87
2017-11-29T07:44:54.465Z,28.35
2017-11-29T07:45:56.962Z,31.42
2017-11-29T07:46:59.439Z,33.55
2017-11-29T07:48:01.918Z,55.80
2017-11-29T07:49:04.395Z,24.33
2017-11-29T07:50:06.869Z,19.70
2017-11-29T07:51:09.429Z,20.60
2017-11-29T07:52:11.906Z,21.52
2017-11-29T07:53:14.396Z,29.98
2017-11-29T07:54:17.005Z,26.85
2017-11-29T07:55:19.595Z,23.15
2017-11-29T07:56:22.083Z,26.95
2017-11-29T07:57:24.559Z,27.33
2017-11-29T07:58:27.120Z,23.52
2017-11-29T07:59:29.605Z,22.33
2017-11-29T08:00:32.099Z,21.15
2017-11-29T08:01:34.592Z,21.23
2017-11-29T08:02:37.056Z,20.45
2017-11-29T08:03:39.514Z,19.30
2017-11-29T08:04:42.011Z,20.00
2017-11-29T08:05:44.558Z,20.50
2017-11-29T08:06:47.035Z,18.37
2017-11-29T08:07:49.511Z,24.25
2017-11-29T08:08:52.051Z,31.35
2017-11-29T08:09:54.556Z,23.95
2017-11-29T08:10:57.030Z,19.50
2017-11-29T08:11:59.507Z,22.25
2017-11-29T08:13:01.982Z,20.67
2017-11-29T08:14:04.445Z,21.35
2017-11-29T08:15:06.949Z,19.75
2017-11-29T08:16:09.412Z,20.73
2017-11-29T08:17:11.888Z,20.50
2017-11-29T08:18:14.344Z,19.15
2017-11-29T08:19:16.801Z,20.73
2017-11-29T08:20:19.307Z,22.73
2017-11-29T08:21:21.783Z,59.55
2017-11-29T08:22:24.260Z,43.45
2017-11-29T08:23:26.729Z,143.62
2017-11-29T08:24:29.227Z,68.45
2017-11-29T08:25:31.723Z,64.60
2017-11-29T08:26:34.198Z,50.10
2017-11-29T08:27:36.763Z,29.60
2017-11-29T08:28:39.250Z,51.03
2017-11-29T08:29:41.708Z,42.90
2017-11-29T08:30:44.207Z,19.20
2017-11-29T08:31:46.683Z,19.33
2017-11-29T08:32:57.028Z,35.28
2017-11-29T08:33:59.492Z,25.02
2017-11-29T08:35:01.948Z,25.12
2017-11-29T08:36:04.464Z,34.15
2017-11-29T08:37:06.943Z,26.58
2017-11-29T08:38:09.413Z,30.37
2017-11-29T08:39:11.882Z,28.73
2017-11-29T08:40:14.377Z,23.23
2017-11-29T08:41:16.905Z,33.58
2017-11-29T08:42:19.492Z,22.23
2017-11-29T08:43:21.963Z,20.08
2017-11-29T08:44:24.438Z,19.98
2017-11-29T08:45:26.910Z,21.85
2017-11-29T08:46:29.402Z,17.90
2017-11-29T08:47:31.884Z,19.05
2017-11-29T08:48:34.357Z,18.37
2017-11-29T08:49:36.829Z,18.33
2017-11-29T08:50:39.321Z,16.30
2017-11-29T08:51:41.810Z,19.45
2017-11-29T08:52:44.286Z,18.15
2017-11-29T08:53:46.765Z,16.58
2017-11-29T08:54:49.233Z,16.58
2017-11-29T08:55:51.778Z,16.55
2017-11-29T08:56:54.287Z,16.98
2017-11-29T08:57:56.788Z,16.42
2017-11-29T08:58:59.249Z,16.23
2017-11-29T09:00:01.729Z,15.82
2017-11-29T09:01:04.220Z,15.25
2017-11-29T09:02:06.701Z,16.33
2017-11-29T09:03:09.161Z,16.62
2017-11-29T09:04:11.629Z,16.45
2017-11-29T09:05:14.118Z,18.62
2017-11-29T09:06:16.595Z,18.00
2017-11-29T09:07:19.121Z,16.67
2017-11-29T09:08:21.602Z,16.58
2017-11-29T09:09:24.079Z,18.08
2017-11-29T09:10:26.616Z,17.80
2017-11-29T09:11:29.083Z,17.20
2017-11-29T09:12:31.567Z,16.23
2017-11-29T09:13:34.047Z,16.77
2017-11-29T09:14:36.528Z,17.60
2017-11-29T09:15:39.020Z,17.40
2017-11-29T09:16:41.482Z,17.87
2017-11-29T09:17:43.971Z,17.45
2017-11-29T09:18:46.565Z,16.90
2017-11-29T09:19:49.043Z,16.50
2017-11-29T09:20:51.547Z,16.75
2017-11-29T09:21:54.021Z,17.60
2017-11-29T09:22:56.484Z,15.88
2017-11-29T09:23:58.958Z,16.98
2017-11-29T09:25:01.439Z,17.50
2017-11-29T09:26:03.906Z,17.70
2017-11-29T09:27:06.382Z,16.85
2017-11-29T09:28:08.884Z,16.02
2017-11-29T09:29:11.358Z,15.80
2017-11-29T09:30:13.818Z,17.27
2017-11-29T09:31:16.284Z,18.17
2017-11-29T09:32:18.766Z,17.02
2017-11-29T09:33:21.247Z,16.85
2017-11-29T09:34:23.730Z,17.37
2017-11-29T09:35:26.220Z,17.10
2017-11-29T09:36:28.701Z,19.70
2017-11-29T09:37:31.174Z,18.20
2017-11-29T09:38:33.671Z,17.87
2017-11-29T09:39:36.250Z,17.58
2017-11-29T09:40:38.736Z,19.10
2017-11-29T09:41:41.214Z,18.60
2017-11-29T09:42:43.682Z,18.37
2017-11-29T09:43:46.165Z,16.00
2017-11-29T09:44:48.643Z,16.80
2017-11-29T09:45:51.109Z,15.27
2017-11-29T09:46:53.570Z,16.67
2017-11-29T09:47:56.043Z,20.17
2017-11-29T09:48:58.522Z,16.27
2017-11-29T09:50:01.047Z,16.62
2017-11-29T09:51:03.529Z,16.05
2017-11-29T09:52:06.013Z,16.80
2017-11-29T09:53:08.497Z,18.02
2017-11-29T09:54:10.982Z,17.62
2017-11-29T09:55:13.457Z,17.23
2017-11-29T09:56:15.940Z,17.02
2017-11-29T09:57:18.423Z,17.33
2017-11-29T09:58:20.883Z,17.48
2017-11-29T09:59:23.358Z,17.15
2017-11-29T10:00:25.841Z,16.65
2017-11-29T10:01:28.304Z,16.67
2017-11-29T10:02:30.778Z,16.35
2017-11-29T10:03:33.259Z,15.98
2017-11-29T10:04:35.740Z,15.57
2017-11-29T10:05:38.229Z,18.25
2017-11-29T10:06:40.717Z,17.00
2017-11-29T10:07:43.255Z,16.92
2017-11-29T10:08:45.725Z,16.83
2017-11-29T10:09:48.195Z,15.30
2017-11-29T10:10:50.655Z,16.75
2017-11-29T10:11:53.145Z,15.10
2017-11-29T10:12:55.637Z,15.80
2017-11-29T10:13:58.113Z,15.35
2017-11-29T10:15:00.604Z,14.95
2017-11-29T10:16:03.106Z,27.80
2017-11-29T10:17:05.567Z,16.25
2017-11-29T10:18:08.048Z,15.80
2017-11-29T10:19:10.556Z,17.73
2017-11-29T10:20:13.107Z,16.95
2017-11-29T10:21:15.774Z,16.08
2017-11-29T10:22:18.269Z,19.85
2017-11-29T10:23:20.871Z,22.98
2017-11-29T10:24:23.340Z,16.87
2017-11-29T10:25:25.903Z,17.48
2017-11-29T10:26:28.463Z,17.00
2017-11-29T10:27:30.932Z,18.75
2017-11-29T10:28:33.406Z,16.77
2017-11-29T10:29:35.884Z,16.65
2017-11-29T10:30:38.367Z,18.83
2017-11-29T10:31:40.851Z,18.12
2017-11-29T10:32:43.330Z,35.70
2017-11-29T10:33:45.808Z,27.90
2017-11-29T10:34:48.277Z,28.80
2017-11-29T10:35:50.798Z,18.80
2017-11-29T10:36:53.266Z,26.60
2017-11-29T10:37:56.179Z,27.67
2017-11-29T10:38:58.659Z,20.20
2017-11-29T10:40:01.116Z,23.55
2017-11-29T10:41:03.689Z,19.33
2017-11-29T10:42:06.162Z,22.10
2017-11-29T10:43:08.635Z,20.23
2017-11-29T10:44:11.656Z,21.00
2017-11-29T10:45:14.117Z,17.83
2017-11-29T10:46:16.595Z,22.60
2017-11-29T10:47:19.131Z,26.12
2017-11-29T10:48:21.606Z,16.60
2017-11-29T10:49:24.087Z,15.82
2017-11-29T10:50:26.566Z,16.17
2017-11-29T10:51:29.052Z,16.12
2017-11-29T10:52:31.526Z,14.00
2017-11-29T10:53:33.992Z,30.20
2017-11-29T10:54:36.465Z,16.60
2017-11-29T10:55:39.020Z,15.20
2017-11-29T10:56:41.493Z,16.08
2017-11-29T10:57:43.967Z,14.98
2017-11-29T10:58:46.501Z,28.87
2017-11-29T10:59:48.964Z,14.40
2017-11-29T11:00:51.443Z,12.77
2017-11-29T11:01:53.907Z,14.13
2017-11-29T11:02:56.361Z,11.05
2017-11-29T11:03:58.851Z,11.27
2017-11-29T11:05:01.446Z,12.00
2017-11-29T11:06:03.918Z,14.63
2017-11-29T11:07:06.393Z,24.40
2017-11-29T11:08:08.892Z,21.35
2017-11-29T11:09:11.374Z,13.48
2017-11-29T11:10:13.884Z,13.15
2017-11-29T11:11:16.377Z,11.98
2017-11-29T11:12:18.837Z,15.45
2017-11-29T11:13:21.321Z,21.70
2017-11-29T11:14:23.799Z,15.48
2017-11-29T11:15:26.332Z,13.82
2017-11-29T11:16:28.807Z,11.00
2017-11-29T11:17:31.272Z,12.05
2017-11-29T11:18:33.774Z,11.60
2017-11-29T11:19:36.247Z,12.57
2017-11-29T11:20:38.722Z,12.75
2017-11-29T11:21:41.184Z,21.27
2017-11-29T11:22:43.650Z,14.77
2017-11-29T11:23:46.121Z,11.75
2017-11-29T11:24:48.592Z,15.65
2017-11-29T11:25:51.076Z,12.25
2017-11-29T11:26:53.546Z,11.55
2017-11-29T11:27:56.013Z,13.20
2017-11-29T11:28:58.482Z,11.65
2017-11-29T11:30:00.954Z,10.55
2017-11-29T11:31:03.429Z,10.07
2017-11-29T11:32:05.887Z,9.77
2017-11-29T11:33:08.363Z,9.68
2017-11-29T11:34:10.841Z,11.70
2017-11-29T11:35:13.602Z,10.55
2017-11-29T11:36:16.151Z,11.02
2017-11-29T11:37:18.629Z,10.60
2017-11-29T11:38:21.098Z,9.30
2017-11-29T11:39:23.566Z,9.40
2017-11-29T11:40:26.051Z,8.63
2017-11-29T11:41:28.512Z,9.00
2017-11-29T11:42:31.237Z,9.70
2017-11-29T11:43:33.710Z,11.90
2017-11-29T11:44:36.173Z,12.80
2017-11-29T11:45:38.637Z,9.68
2017-11-29T11:46:41.107Z,9.77
2017-11-29T11:47:43.569Z,10.07
2017-11-29T11:48:46.031Z,10.25
2017-11-29T11:49:48.488Z,9.43
2017-11-29T11:50:50.971Z,10.07
2017-11-29T11:51:53.465Z,10.73
2017-11-29T11:52:55.949Z,9.38
2017-11-29T11:53:58.430Z,8.80
2017-11-29T11:55:00.893Z,9.07
2017-11-29T11:56:03.394Z,9.10
2017-11-29T11:57:05.871Z,9.55
2017-11-29T11:58:08.377Z,9.07
2017-11-29T11:59:11.383Z,9.35
2017-11-29T12:00:13.914Z,9.85
2017-11-29T12:01:16.395Z,10.27
2017-11-29T12:02:18.868Z,9.20
2017-11-29T12:03:21.339Z,8.95
2017-11-29T12:04:23.810Z,6.80
2017-11-29T12:05:26.273Z,6.85
2017-11-29T12:06:28.858Z,7.32
2017-11-29T12:07:31.410Z,6.60
2017-11-29T12:08:33.869Z,7.32
2017-11-29T12:09:36.334Z,6.85
2017-11-29T12:10:38.787Z,7.47
2017-11-29T12:11:41.258Z,6.18
2017-11-29T12:12:43.711Z,7.32
2017-11-29T12:13:46.177Z,6.95
2017-11-29T12:14:48.647Z,6.93
2017-11-29T12:15:51.106Z,6.18
2017-11-29T12:16:53.586Z,7.65
2017-11-29T12:17:56.047Z,8.23
2017-11-29T12:18:58.505Z,7.85
2017-11-29T12:20:01.186Z,5.95
2017-11-29T12:21:03.768Z,7.60
2017-11-29T12:22:06.238Z,5.93
2017-11-29T12:23:08.698Z,5.80
2017-11-29T12:24:11.175Z,5.53
2017-11-29T12:25:13.642Z,6.10
2017-11-29T12:26:16.096Z,6.37
2017-11-29T12:27:18.571Z,6.78
2017-11-29T12:28:21.046Z,7.43
2017-11-29T12:29:23.516Z,6.85
2017-11-29T12:30:25.986Z,7.18
2017-11-29T12:31:28.440Z,6.15
2017-11-29T12:32:30.906Z,6.82
2017-11-29T12:33:33.379Z,9.70
2017-11-29T12:34:35.840Z,21.30
2017-11-29T12:35:38.305Z,44.22
2017-11-29T12:36:40.764Z,19.85
2017-11-29T12:37:43.352Z,10.50
2017-11-29T12:38:45.901Z,18.30
2017-11-29T12:39:48.386Z,12.77
2017-11-29T12:40:51.108Z,8.68
2017-11-29T12:41:53.594Z,10.90
2017-11-29T12:42:56.090Z,18.67
2017-11-29T12:43:58.566Z,7.15
2017-11-29T12:45:01.030Z,16.52
2017-11-29T12:46:03.507Z,8.27
2017-11-29T12:47:05.978Z,9.00
2017-11-29T12:48:20.385Z,6.68
2017-11-29T12:49:34.616Z,6.78
2017-11-29T12:50:48.961Z,7.28
2017-11-29T12:51:51.532Z,34.70
2017-11-29T12:52:54.005Z,26.58
2017-11-29T12:53:57.036Z,8.70
2017-11-29T12:54:59.640Z,6.85
2017-11-29T12:56:02.135Z,7.20
2017-11-29T12:57:04.600Z,7.43
2017-11-29T12:58:07.076Z,6.90
2017-11-29T12:59:09.540Z,6.93
2017-11-29T13:00:12.006Z,6.47
2017-11-29T13:01:14.557Z,5.70
2017-11-29T13:02:17.049Z,6.22
2017-11-29T13:03:19.509Z,6.90
2017-11-29T13:04:21.975Z,6.53
2017-11-29T13:05:24.428Z,5.72
2017-11-29T13:06:26.922Z,6.10
2017-11-29T13:07:29.399Z,5.72
2017-11-29T13:08:31.861Z,7.18
2017-11-29T13:09:34.348Z,6.40
2017-11-29T13:10:36.968Z,6.03
2017-11-29T13:11:39.492Z,6.15
2017-11-29T13:12:41.974Z,5.78
2017-11-29T13:13:44.442Z,6.10
2017-11-29T13:14:46.956Z,6.78
2017-11-29T13:15:49.417Z,5.43
2017-11-29T13:16:51.930Z,11.77
2017-11-29T13:17:54.413Z,5.87
2017-11-29T13:18:56.881Z,6.28
2017-11-29T13:19:59.333Z,6.35
2017-11-29T13:21:01.820Z,7.43
2017-11-29T13:22:04.302Z,7.18
2017-11-29T13:23:06.780Z,6.32
2017-11-29T13:24:09.247Z,6.55
2017-11-29T13:25:11.723Z,8.95
2017-11-29T13:26:14.185Z,8.18
2017-11-29T13:27:16.668Z,14.18
2017-11-29T13:28:19.137Z,13.57
2017-11-29T13:29:21.607Z,14.13
2017-11-29T13:30:24.095Z,12.77
2017-11-29T13:31:26.811Z,13.25
2017-11-29T13:32:29.370Z,8.10